Terminal Aerodrome Forecast
Issued by NWS

Home | Current Version | Previous Version | Text Only | Print | Product List | Glossary On
Versions: 1 2 3 4 5 6 7 8 9 10 11 12 13 14 15 16 17 18 19 20 21 22 23 24 25 26 27 28 29 30
352
FTPQ31 PGUM 282336
TAFGUM
TAF

TAF
PTRO 282336Z 2900/2924 06007KT P6SM VCTS SCT015CB SCT030 BKN110
      TEMPO 2901/2903 5SM SHRA OVC015
     FM290500 09005KT P6SM VCSH SCT016 SCT030 BKN120=

USA.gov is the U.S. government's official web portal to all federal, state and local government web resources and services.